LIMF METAR and TAF | Updated Today

LIMF METAR

Turin Airport

Observation time: 5 min. ago

LIMF 061950Z 36005KT 9999 SCT045 19/14 Q1029

Need help? Read our tutorial on how to read METARs or read the parsed version below.

Turin Airport (LIMF) METAR

  • Weather conditions on Thu, 06 Oct 2022 19:50:00 +0000 (5 min. ago):
  • Present conditions: Dry
  • Clouds: Scattered at 1372 meters
  • Visibility: Greater than 10 km
  • Wind: 360 degrees at 5 knots
  • Temperature: 19 celsius
  • Dew point: 14 celsius
  • Pressure: 1029 millibars
  • Remarks: None


Useful to know...

LIMF TAF

Turin Airport

TAF LIMF 061700Z 0618/0718 VRB05KT CAVOK TEMPO 0622/0706 3000 BR
Observation time: 2:55 hr. ago
Need help? Read our tutorial on how to read TAFs or read the parsed version below.

Parsed version of TAF for Turin Airport (LIMF)

  • From 06 October at 18:00 UTC, to day 07 of the month at 18:00 UTC
  • Visibility: Greater than 10 km
  • Wind: Variable at 5
  • Expected to arise temporarily, from 06 October at 22:00 UTC, to day 07 of the month at 06:00 UTC
  • Visibility: 3000 meters
  • Other: Mist